Time;durP1;ratioP1;P1;durP2;ratioP2;P2;SDS_P1;SDS_P2;PMS_P1;PMS_P2;Temp;Humidity;BMP_temperature;BMP_pressure;BME280_temperature;BME280_humidity;BME280_pressure;Samples;Min_cycle;Max_cycle;Signal;HPM_P1;HPM_P2
2021/11/20 00:01:08;;;;;;;4.83;4.40;;;14.60;99.90;;;;;;5072881;28;20466;-64
2021/11/20 00:03:38;;;;;;;6.63;5.00;;;14.60;99.90;;;;;;5073423;28;20461;-63
2021/11/20 00:06:05;;;;;;;7.90;5.33;;;14.60;99.90;;;;;;5073118;28;20804;-63
2021/11/20 00:08:32;;;;;;;8.67;5.20;;;14.50;99.90;;;;;;5072164;28;20489;-63
2021/11/20 00:11:04;;;;;;;7.43;5.77;;;14.50;99.90;;;;;;5072583;28;20474;-63
2021/11/20 00:13:34;;;;;;;7.40;6.30;;;14.50;99.90;;;;;;5067037;28;20483;-64
2021/11/20 00:16:06;;;;;;;6.13;5.50;;;14.50;99.90;;;;;;5061733;28;20628;-63
2021/11/20 00:18:34;;;;;;;6.27;5.67;;;14.50;99.90;;;;;;5072712;28;20470;-63
2021/11/20 00:21:04;;;;;;;11.87;6.77;;;14.50;99.90;;;;;;5072379;28;20488;-63
2021/11/20 00:23:33;;;;;;;8.27;6.07;;;14.50;99.90;;;;;;5069290;28;20514;-63
2021/11/20 00:26:02;;;;;;;9.00;5.63;;;14.50;99.90;;;;;;5073664;28;20473;-63
2021/11/20 00:28:41;;;;;;;6.50;5.90;;;14.50;99.90;;;;;;5072725;28;20477;-63
2021/11/20 00:31:15;;;;;;;7.73;6.67;;;14.50;99.90;;;;;;5072090;28;20574;-63
2021/11/20 00:33:43;;;;;;;8.57;5.90;;;14.40;99.90;;;;;;5067518;28;20463;-64
2021/11/20 00:36:11;;;;;;;6.17;5.67;;;14.40;99.90;;;;;;5072719;28;20489;-63
2021/11/20 00:38:40;;;;;;;9.50;5.50;;;14.40;99.90;;;;;;5076727;28;20457;-63
2021/11/20 00:41:12;;;;;;;8.73;7.60;;;14.40;99.90;;;;;;5072702;28;20482;-63
2021/11/20 00:43:41;;;;;;;10.40;7.17;;;14.40;99.90;;;;;;5072349;28;20554;-63
2021/11/20 00:46:08;;;;;;;6.20;5.20;;;14.40;99.90;;;;;;5072169;28;20470;-63
2021/11/20 00:48:36;;;;;;;7.50;6.30;;;14.40;99.90;;;;;;5072077;28;20553;-63
2021/11/20 00:51:06;;;;;;;7.87;6.53;;;14.40;99.90;;;;;;5072045;28;20471;-63
2021/11/20 00:53:34;;;;;;;12.40;8.73;;;14.40;99.90;;;;;;5072134;28;20801;-63
2021/11/20 00:56:02;;;;;;;8.37;7.50;;;14.40;99.90;;;;;;5072779;28;20458;-63
2021/11/20 00:58:29;;;;;;;10.17;7.53;;;14.40;99.90;;;;;;5071928;28;20500;-63
2021/11/20 01:01:00;;;;;;;17.13;11.93;;;14.40;99.90;;;;;;5072438;28;20466;-63
2021/11/20 01:03:28;;;;;;;9.73;6.17;;;14.30;99.90;;;;;;5072355;28;20470;-63
2021/11/20 01:05:57;;;;;;;7.30;6.00;;;14.30;99.90;;;;;;5071713;28;20482;-63
2021/11/20 01:08:27;;;;;;;13.50;7.00;;;14.30;99.90;;;;;;5070586;28;20500;-63
2021/11/20 01:11:03;;;;;;;9.33;6.70;;;14.30;99.90;;;;;;5070926;28;20462;-64
2021/11/20 01:13:30;;;;;;;18.67;14.00;;;14.40;99.90;;;;;;5071594;28;20462;-63
2021/11/20 01:15:59;;;;;;;9.63;6.30;;;14.30;99.90;;;;;;5065917;28;20455;-63
2021/11/20 01:18:27;;;;;;;9.40;7.03;;;14.40;99.90;;;;;;5072214;28;20470;-63
2021/11/20 01:23:41;;;;;;;7.17;5.40;;;14.40;99.90;;;;;;5071639;28;20462;-63
2021/11/20 01:26:09;;;;;;;8.40;6.93;;;14.40;99.90;;;;;;5072295;28;20465;-63
2021/11/20 01:28:39;;;;;;;9.90;7.93;;;14.40;99.90;;;;;;5071261;28;20466;-63
2021/11/20 01:31:12;;;;;;;6.10;5.37;;;14.40;99.90;;;;;;5071614;28;20524;-63
2021/11/20 01:33:40;;;;;;;12.60;7.63;;;14.40;99.90;;;;;;5071385;28;20477;-63
2021/11/20 01:36:09;;;;;;;8.83;6.53;;;14.40;99.90;;;;;;5071894;28;20462;-63
2021/11/20 01:38:36;;;;;;;6.07;5.60;;;14.40;99.90;;;;;;5076868;28;20850;-63
2021/11/20 01:41:04;;;;;;;7.87;5.17;;;14.40;99.90;;;;;;5071728;28;20470;-63
2021/11/20 01:43:32;;;;;;;12.47;8.43;;;14.30;99.90;;;;;;5071293;28;21002;-63
2021/11/20 01:46:01;;;;;;;15.23;10.33;;;14.30;99.90;;;;;;5070835;28;20474;-63
2021/11/20 01:48:47;;;;;;;7.07;5.33;;;14.20;99.90;;;;;;5072320;28;20474;-63
2021/11/20 01:51:19;;;;;;;11.90;6.50;;;14.10;99.90;;;;;;5071788;28;20482;-63
2021/11/20 01:54:04;;;;;;;9.15;6.70;;;14.10;99.90;;;;;;5072099;28;20523;-63
2021/11/20 01:56:36;;;;;;;7.23;6.47;;;14.10;99.90;;;;;;5068435;28;20235;-63
2021/11/20 01:59:18;;;;;;;5.90;5.23;;;14.00;99.90;;;;;;5063285;28;20536;-63
2021/11/20 02:01:49;;;;;;;8.73;5.27;;;14.10;99.90;;;;;;5070802;28;20458;-63
2021/11/20 02:04:23;;;;;;;16.63;10.47;;;14.10;99.90;;;;;;5071154;28;20454;-63
2021/11/20 02:06:59;;;;;;;9.57;6.20;;;14.10;99.90;;;;;;5070307;28;20465;-62
2021/11/20 02:09:32;;;;;;;9.93;5.70;;;14.10;99.90;;;;;;5069365;28;20492;-63
2021/11/20 02:12:06;;;;;;;7.67;6.00;;;14.20;99.90;;;;;;5070840;28;20450;-63
2021/11/20 02:14:34;;;;;;;6.77;5.30;;;14.20;99.90;;;;;;5071670;28;20521;-63
2021/11/20 02:17:06;;;;;;;10.57;8.07;;;14.20;99.90;;;;;;5064455;28;20477;-63
2021/11/20 02:19:36;;;;;;;13.03;11.87;;;14.20;99.90;;;;;;5071544;28;20471;-63
2021/11/20 02:22:09;;;;;;;6.60;5.57;;;14.10;99.90;;;;;;5065084;28;20466;-63
2021/11/20 02:24:36;;;;;;;5.70;4.00;;;14.10;99.90;;;;;;5071667;28;20523;-63
2021/11/20 02:27:07;;;;;;;10.50;6.83;;;14.20;99.90;;;;;;5071182;28;20462;-63
2021/11/20 02:29:45;;;;;;;6.77;6.10;;;14.20;99.90;;;;;;5071632;28;20466;-63
2021/11/20 02:32:16;;;;;;;5.50;5.00;;;14.20;99.90;;;;;;5071401;28;20826;-63
2021/11/20 02:34:43;;;;;;;4.40;4.00;;;14.10;99.90;;;;;;5062036;28;20469;-63
2021/11/20 02:37:11;;;;;;;5.70;5.07;;;14.10;99.90;;;;;;5070994;28;20473;-63
2021/11/20 02:39:38;;;;;;;3.33;3.00;;;14.20;99.90;;;;;;5071116;28;20470;-63
2021/11/20 02:42:08;;;;;;;4.07;3.33;;;14.10;99.90;;;;;;5071372;28;20601;-63
2021/11/20 02:44:36;;;;;;;7.00;3.60;;;14.10;99.90;;;;;;5071669;28;20481;-63
2021/11/20 02:47:05;;;;;;;4.60;4.07;;;14.20;99.90;;;;;;5068103;28;20475;-63
2021/11/20 02:49:33;;;;;;;7.10;4.40;;;14.20;99.90;;;;;;5070609;28;20600;-63
2021/11/20 02:52:03;;;;;;;4.53;3.63;;;14.20;99.90;;;;;;5071098;28;20983;-63
2021/11/20 02:54:31;;;;;;;6.80;5.37;;;14.10;99.90;;;;;;5073157;28;20597;-63
2021/11/20 02:57:01;;;;;;;4.93;3.67;;;14.10;99.90;;;;;;5074841;28;20473;-63
2021/11/20 02:59:28;;;;;;;3.40;3.10;;;14.10;99.90;;;;;;5075401;28;20854;-63
2021/11/20 03:01:56;;;;;;;15.30;11.30;;;14.00;99.90;;;;;;5074808;28;20512;-63
2021/11/20 03:04:24;;;;;;;97.87;59.80;;;14.00;99.90;;;;;;5075320;28;20472;-63
2021/11/20 03:06:54;;;;;;;63.20;44.97;;;14.10;99.90;;;;;;5074557;28;20851;-63
2021/11/20 03:09:23;;;;;;;8.70;7.07;;;14.00;99.90;;;;;;5074869;28;20462;-63
2021/11/20 03:11:51;;;;;;;4.77;4.07;;;14.00;99.90;;;;;;5075080;28;20553;-63
2021/11/20 03:14:20;;;;;;;7.87;6.13;;;14.00;99.90;;;;;;5074841;28;20493;-63
2021/11/20 03:16:49;;;;;;;5.20;4.70;;;13.90;99.90;;;;;;5074117;28;20523;-62
2021/11/20 03:19:16;;;;;;;5.37;3.47;;;13.90;99.90;;;;;;5074439;28;20281;-63
2021/11/20 03:21:46;;;;;;;4.13;3.73;;;13.90;99.90;;;;;;5074921;28;20466;-63
2021/11/20 03:24:17;;;;;;;7.28;5.25;;;14.00;99.90;;;;;;5074173;28;20817;-63
2021/11/20 03:26:45;;;;;;;5.20;4.40;;;14.00;99.90;;;;;;5074762;28;20227;-63
2021/11/20 03:29:12;;;;;;;6.07;3.50;;;14.00;99.90;;;;;;5074350;28;20817;-62
2021/11/20 03:31:39;;;;;;;4.28;3.75;;;14.00;99.90;;;;;;5074553;28;20833;-63
2021/11/20 03:34:07;;;;;;;6.80;6.17;;;14.00;99.90;;;;;;5074030;28;20228;-63
2021/11/20 03:36:35;;;;;;;6.27;2.90;;;14.00;99.90;;;;;;5073708;28;20474;-63
2021/11/20 03:39:02;;;;;;;3.60;3.30;;;14.00;99.90;;;;;;5067855;28;21247;-62
2021/11/20 03:41:30;;;;;;;9.27;4.13;;;14.00;99.90;;;;;;5074615;28;20537;-63
2021/11/20 03:43:57;;;;;;;5.38;3.58;;;13.90;99.90;;;;;;5074220;28;20470;-63
2021/11/20 03:46:25;;;;;;;7.17;5.60;;;14.00;99.90;;;;;;5073909;28;20678;-63
2021/11/20 03:48:52;;;;;;;8.70;5.30;;;14.00;99.90;;;;;;5074359;28;20462;-63
2021/11/20 03:51:19;;;;;;;17.70;13.33;;;13.90;99.90;;;;;;5073952;28;20454;-63
2021/11/20 03:53:46;;;;;;;4.47;4.10;;;14.00;99.90;;;;;;5074141;28;20478;-63
2021/11/20 03:56:13;;;;;;;12.03;4.27;;;14.00;99.90;;;;;;5073901;28;20466;-63
2021/11/20 03:58:42;;;;;;;6.07;5.50;;;13.90;99.90;;;;;;5073524;28;20463;-63
2021/11/20 04:01:14;;;;;;;4.10;3.70;;;13.90;99.90;;;;;;5073374;28;20482;-62
2021/11/20 04:03:42;;;;;;;4.87;4.37;;;14.00;99.90;;;;;;5074196;28;20527;-63
2021/11/20 04:06:12;;;;;;;5.97;5.20;;;13.90;99.90;;;;;;5066478;28;20806;-63
2021/11/20 04:08:40;;;;;;;6.17;5.40;;;13.90;99.90;;;;;;5074112;28;20573;-63
2021/11/20 04:11:07;;;;;;;3.57;3.37;;;13.80;99.90;;;;;;5073547;28;20474;-63
2021/11/20 04:13:35;;;;;;;4.00;3.53;;;13.90;99.90;;;;;;5073878;28;20470;-63
2021/11/20 04:16:04;;;;;;;7.20;4.30;;;13.90;99.90;;;;;;5073272;28;20467;-63
2021/11/20 04:18:31;;;;;;;6.00;4.10;;;13.90;99.90;;;;;;5074079;28;20528;-63
2021/11/20 04:21:17;;;;;;;;;;;;;;;;;;;;;
2021/11/20 04:23:53;;;;;;;4.53;4.07;;;13.90;99.90;;;;;;5066038;28;20245;-63
2021/11/20 04:26:30;;;;;;;4.70;3.80;;;13.90;99.90;;;;;;5073160;28;20842;-63
2021/11/20 04:28:58;;;;;;;5.00;4.50;;;13.90;99.90;;;;;;5071862;28;20724;-63
2021/11/20 04:31:27;;;;;;;27.20;18.40;;;13.90;99.90;;;;;;5071616;28;20454;-63
2021/11/20 04:33:55;;;;;;;7.33;3.93;;;13.90;99.90;;;;;;5073159;28;20490;-64
2021/11/20 04:36:24;;;;;;;4.30;3.50;;;14.00;99.90;;;;;;5072693;28;20843;-63
2021/11/20 04:38:51;;;;;;;3.80;3.50;;;13.90;99.90;;;;;;5073270;28;20953;-64
2021/11/20 04:41:19;;;;;;;3.63;3.33;;;13.90;99.90;;;;;;5072984;28;20547;-63
2021/11/20 04:43:47;;;;;;;4.23;3.83;;;13.90;99.90;;;;;;5073352;28;20827;-64
2021/11/20 04:46:16;;;;;;;4.43;3.70;;;13.90;99.90;;;;;;5073010;28;20470;-63
2021/11/20 04:48:44;;;;;;;4.55;3.20;;;13.90;99.90;;;;;;5073372;28;20466;-63
2021/11/20 04:51:12;;;;;;;5.00;3.40;;;13.90;99.90;;;;;;5072837;28;20666;-63
2021/11/20 04:53:41;;;;;;;4.30;3.90;;;13.90;99.90;;;;;;5073137;28;20504;-64
2021/11/20 04:56:10;;;;;;;3.50;3.20;;;13.90;99.90;;;;;;5072813;28;20478;-63
2021/11/20 04:58:37;;;;;;;7.33;3.73;;;13.90;99.90;;;;;;5073153;28;20283;-63
2021/11/20 05:01:05;;;;;;;4.78;3.75;;;13.90;99.90;;;;;;5072781;28;20478;-64
2021/11/20 05:03:33;;;;;;;6.40;4.18;;;14.00;99.90;;;;;;5073208;28;20704;-64
2021/11/20 05:06:01;;;;;;;3.80;3.40;;;14.00;99.90;;;;;;5072963;28;20562;-64
2021/11/20 05:08:29;;;;;;;6.60;3.40;;;13.90;99.90;;;;;;5072776;28;20458;-63
2021/11/20 05:10:57;;;;;;;3.50;3.20;;;13.90;99.90;;;;;;5072133;28;20466;-63
2021/11/20 05:13:26;;;;;;;7.00;4.53;;;13.90;99.90;;;;;;5072487;28;20846;-64
2021/11/20 05:15:56;;;;;;;4.67;3.27;;;14.00;99.90;;;;;;5070515;28;20597;-64
2021/11/20 05:18:23;;;;;;;13.43;4.17;;;14.00;99.90;;;;;;5072354;28;20489;-64
2021/11/20 05:20:52;;;;;;;3.00;2.80;;;14.00;99.90;;;;;;5072559;28;20953;-64
2021/11/20 05:23:20;;;;;;;6.40;3.23;;;14.00;99.90;;;;;;5062687;28;20470;-64
2021/11/20 05:25:47;;;;;;;3.40;3.10;;;14.00;99.90;;;;;;5072600;28;20458;-63
2021/11/20 05:28:15;;;;;;;6.07;3.40;;;14.10;99.90;;;;;;5071452;28;20481;-63
2021/11/20 05:30:44;;;;;;;5.50;3.37;;;14.10;99.90;;;;;;5071352;28;20967;-63
2021/11/20 05:33:15;;;;;;;6.90;3.20;;;14.00;99.90;;;;;;5071503;28;20927;-64
2021/11/20 05:35:42;;;;;;;4.83;4.37;;;14.00;99.90;;;;;;5071649;28;20481;-64
2021/11/20 05:38:10;;;;;;;4.13;3.20;;;14.00;99.90;;;;;;5071221;28;20529;-63
2021/11/20 05:40:38;;;;;;;5.00;4.40;;;14.00;99.90;;;;;;5071652;28;20701;-64
2021/11/20 05:43:08;;;;;;;3.97;3.67;;;14.00;99.90;;;;;;5071293;28;20470;-63
2021/11/20 05:45:38;;;;;;;4.57;3.80;;;14.00;99.90;;;;;;5058178;28;20928;-63
2021/11/20 05:48:05;;;;;;;5.40;4.47;;;14.00;99.90;;;;;;5071509;28;20469;-63
2021/11/20 05:50:34;;;;;;;3.33;3.00;;;14.00;99.90;;;;;;5070900;28;20527;-64
2021/11/20 05:53:01;;;;;;;5.03;4.53;;;14.00;99.90;;;;;;5072339;28;20475;-64
2021/11/20 05:55:31;;;;;;;4.73;4.10;;;14.10;99.90;;;;;;5072244;28;20481;-63
2021/11/20 05:58:00;;;;;;;3.93;3.30;;;14.00;99.90;;;;;;5072411;28;20545;-64
2021/11/20 06:00:29;;;;;;;4.63;4.15;;;14.00;99.90;;;;;;5071867;28;20474;-63
2021/11/20 06:02:58;;;;;;;3.90;3.60;;;14.00;99.90;;;;;;5072051;28;20228;-64
2021/11/20 06:05:27;;;;;;;3.50;2.97;;;14.00;99.90;;;;;;5071931;28;20474;-64
2021/11/20 06:07:54;;;;;;;4.03;3.67;;;14.00;99.90;;;;;;5071608;28;20843;-63
2021/11/20 06:10:22;;;;;;;3.63;3.33;;;14.00;99.90;;;;;;5071918;28;20470;-63
2021/11/20 06:12:49;;;;;;;3.53;3.10;;;14.00;99.90;;;;;;5072102;28;20479;-64
2021/11/20 06:15:17;;;;;;;3.17;2.97;;;14.00;99.90;;;;;;5071702;28;20463;-63
2021/11/20 06:17:44;;;;;;;3.10;2.80;;;14.00;99.90;;;;;;5059865;28;20465;-63
2021/11/20 06:20:12;;;;;;;3.38;3.08;;;14.00;99.90;;;;;;5071996;28;20470;-64
2021/11/20 06:22:39;;;;;;;4.45;4.05;;;14.00;99.90;;;;;;5071927;28;20227;-63
2021/11/20 06:25:08;;;;;;;4.25;3.95;;;14.00;99.90;;;;;;5072345;28;20232;-64
2021/11/20 06:27:35;;;;;;;4.23;3.83;;;14.00;99.90;;;;;;5071777;28;20243;-63
2021/11/20 06:30:04;;;;;;;3.80;3.17;;;14.00;99.90;;;;;;5074857;28;20527;-63
2021/11/20 06:32:32;;;;;;;3.17;2.30;;;14.00;99.90;;;;;;5075430;28;20470;-64
2021/11/20 06:34:59;;;;;;;7.10;3.27;;;14.00;99.90;;;;;;5075908;28;20470;-64
2021/11/20 06:37:26;;;;;;;2.63;2.43;;;14.00;99.90;;;;;;5075760;28;20523;-63
2021/11/20 06:39:53;;;;;;;4.43;3.50;;;14.00;99.90;;;;;;5075900;28;20789;-64
2021/11/20 06:42:20;;;;;;;3.50;2.63;;;14.00;99.90;;;;;;5075591;28;20473;-63
2021/11/20 06:44:47;;;;;;;5.03;2.60;;;14.00;99.90;;;;;;5075867;28;20488;-63
2021/11/20 06:47:14;;;;;;;9.00;3.57;;;14.00;99.90;;;;;;5075860;28;20545;-63
2021/11/20 06:49:43;;;;;;;4.30;2.80;;;14.00;99.90;;;;;;5075274;28;20527;-64
2021/11/20 06:52:10;;;;;;;3.58;3.13;;;14.00;99.90;;;;;;5075775;28;20466;-63
2021/11/20 06:54:37;;;;;;;5.10;3.85;;;14.00;99.90;;;;;;5075185;28;20841;-64
2021/11/20 06:57:10;;;;;;;3.90;3.08;;;13.90;99.90;;;;;;5075573;28;20689;-64
2021/11/20 07:02:34;;;;;;;3.97;3.30;;;13.90;99.90;;;;;;5050333;28;20465;-63
2021/11/20 07:05:04;;;;;;;3.53;3.22;;;13.90;99.90;;;;;;5075524;28;20470;-63
2021/11/20 07:07:33;;;;;;;3.80;3.42;;;13.80;99.90;;;;;;5074900;28;20351;-63
2021/11/20 07:10:00;;;;;;;4.37;4.07;;;13.90;99.90;;;;;;5075207;28;20224;-64
2021/11/20 07:12:28;;;;;;;3.72;3.25;;;13.90;99.90;;;;;;5074883;28;20881;-63
2021/11/20 07:14:55;;;;;;;4.53;4.00;;;13.80;99.90;;;;;;5075235;28;20228;-63
2021/11/20 07:17:22;;;;;;;4.43;4.00;;;13.80;99.90;;;;;;5062157;28;20995;-63
2021/11/20 07:19:48;;;;;;;4.80;4.30;;;13.80;99.90;;;;;;5075107;28;20537;-64
2021/11/20 07:22:19;;;;;;;4.63;4.17;;;13.90;99.90;;;;;;5075004;28;20964;-63
2021/11/20 07:24:47;;;;;;;6.17;4.80;;;13.90;99.90;;;;;;5074683;28;21218;-64
2021/11/20 07:27:14;;;;;;;9.00;5.05;;;13.90;99.90;;;;;;5075035;28;20463;-64
2021/11/20 07:29:41;;;;;;;7.83;5.30;;;13.90;99.90;;;;;;5074518;28;20232;-64
2021/11/20 07:32:08;;;;;;;8.13;4.73;;;13.90;99.90;;;;;;5074592;28;20485;-64
2021/11/20 07:34:35;;;;;;;5.23;4.80;;;13.90;99.90;;;;;;5074674;28;20535;-64
2021/11/20 07:37:03;;;;;;;6.87;4.60;;;13.90;99.90;;;;;;5074617;28;20470;-64
2021/11/20 07:39:31;;;;;;;8.88;4.78;;;13.90;99.90;;;;;;5074224;28;20540;-64
2021/11/20 07:41:58;;;;;;;4.20;3.75;;;13.90;99.90;;;;;;5073926;28;20554;-64
2021/11/20 07:44:26;;;;;;;5.80;5.15;;;13.90;99.90;;;;;;5074363;28;20274;-64
2021/11/20 07:46:53;;;;;;;9.03;5.33;;;13.90;99.90;;;;;;5074557;28;20228;-64
2021/11/20 07:49:19;;;;;;;6.53;5.93;;;13.90;99.90;;;;;;5074766;28;20961;-64
2021/11/20 07:51:47;;;;;;;5.78;5.05;;;13.90;99.90;;;;;;5074132;28;20515;-64
2021/11/20 07:54:14;;;;;;;6.22;4.63;;;13.80;99.90;;;;;;5074567;28;20220;-64
2021/11/20 07:56:42;;;;;;;6.80;5.15;;;13.80;99.90;;;;;;5074175;28;20616;-64
2021/11/20 07:59:10;;;;;;;8.38;6.47;;;13.80;99.90;;;;;;5074367;28;20278;-64
2021/11/20 08:01:38;;;;;;;5.45;4.95;;;13.80;99.90;;;;;;5074082;28;20635;-64
2021/11/20 08:04:05;;;;;;;5.30;4.60;;;13.80;99.90;;;;;;5074532;28;20220;-64
2021/11/20 08:06:34;;;;;;;7.28;4.97;;;13.80;99.90;;;;;;5073720;28;20223;-64
2021/11/20 08:09:03;;;;;;;6.70;6.10;;;13.80;99.90;;;;;;5074360;28;20227;-64
2021/11/20 08:11:31;;;;;;;6.83;6.13;;;13.80;99.90;;;;;;5073485;28;20219;-64
2021/11/20 08:14:00;;;;;;;7.15;4.70;;;13.80;99.90;;;;;;5074112;28;20523;-64
2021/11/20 08:16:29;;;;;;;6.35;5.35;;;13.80;99.90;;;;;;5066569;28;20220;-64
2021/11/20 08:18:56;;;;;;;8.75;5.63;;;13.80;99.90;;;;;;5074163;28;20224;-64
2021/11/20 08:21:23;;;;;;;8.70;5.18;;;13.70;99.90;;;;;;5073900;28;20728;-63
2021/11/20 08:23:51;;;;;;;6.95;5.85;;;13.70;99.90;;;;;;5073672;28;20220;-63
2021/11/20 08:26:18;;;;;;;9.25;7.25;;;13.80;99.90;;;;;;5073942;28;20299;-63
2021/11/20 08:28:45;;;;;;;8.30;6.03;;;13.80;99.90;;;;;;5072755;28;20339;-63
2021/11/20 08:31:13;;;;;;;6.13;5.22;;;13.70;99.90;;;;;;5073866;28;20219;-64
2021/11/20 08:33:40;;;;;;;8.10;7.32;;;13.80;99.90;;;;;;5073077;28;20224;-64
2021/11/20 08:36:11;;;;;;;6.85;5.35;;;13.80;99.90;;;;;;5073635;28;20257;-64
2021/11/20 08:38:39;;;;;;;9.35;6.10;;;13.80;99.90;;;;;;5073316;28;20742;-64
2021/11/20 08:41:07;;;;;;;7.93;6.27;;;13.80;99.90;;;;;;5073673;28;20227;-64
2021/11/20 08:43:34;;;;;;;10.73;7.20;;;13.90;99.90;;;;;;5073202;28;20520;-63
2021/11/20 08:46:03;;;;;;;11.52;6.95;;;13.90;99.90;;;;;;5073593;28;20466;-64
2021/11/20 08:48:31;;;;;;;7.22;6.25;;;13.90;99.90;;;;;;5073230;28;20216;-63
2021/11/20 08:51:05;;;;;;;11.13;7.15;;;13.90;99.90;;;;;;5060348;28;20220;-63
2021/11/20 08:53:32;;;;;;;14.07;9.50;;;14.00;99.90;;;;;;5072494;28;20689;-63
2021/11/20 08:55:59;;;;;;;6.67;5.93;;;14.00;99.90;;;;;;5073428;28;20454;-63
2021/11/20 08:58:27;;;;;;;8.07;6.78;;;14.00;99.90;;;;;;5073251;28;20474;-63
2021/11/20 09:00:57;;;;;;;13.82;7.10;;;14.00;99.90;;;;;;5073153;28;20608;-64
2021/11/20 09:03:28;;;;;;;8.07;6.82;;;14.00;99.90;;;;;;5072800;28;20216;-64
2021/11/20 09:06:00;;;;;;;13.23;8.43;;;14.10;99.90;;;;;;5072841;28;20224;-63
2021/11/20 09:08:31;;;;;;;10.10;7.83;;;14.10;99.90;;;;;;5072909;28;20216;-63
2021/11/20 09:11:05;;;;;;;13.57;7.40;;;14.10;99.90;;;;;;5072267;28;20482;-64
2021/11/20 09:13:38;;;;;;;17.60;9.73;;;14.10;99.90;;;;;;5072988;28;20565;-64
2021/11/20 09:16:08;;;;;;;12.27;8.55;;;14.10;99.90;;;;;;5072972;28;20519;-64
2021/11/20 09:18:36;;;;;;;10.57;7.50;;;14.20;99.90;;;;;;5073322;28;20636;-64
2021/11/20 09:21:07;;;;;;;10.63;7.20;;;14.20;99.90;;;;;;5072631;28;20466;-64
2021/11/20 09:23:34;;;;;;;7.88;6.85;;;14.20;99.90;;;;;;5073228;28;20469;-64
2021/11/20 09:26:01;;;;;;;11.50;7.87;;;14.20;99.90;;;;;;5072747;28;20239;-64
2021/11/20 09:28:30;;;;;;;9.20;7.00;;;14.20;99.90;;;;;;5073234;28;20488;-64
2021/11/20 09:31:00;;;;;;;7.70;6.57;;;14.30;99.90;;;;;;5072475;28;20531;-64
2021/11/20 09:33:28;;;;;;;22.23;15.97;;;14.20;99.90;;;;;;5072593;28;20462;-64
2021/11/20 09:35:55;;;;;;;7.90;6.33;;;14.20;99.90;;;;;;5072611;28;20960;-64
2021/11/20 09:38:25;;;;;;;9.73;7.05;;;14.20;99.90;;;;;;5072876;28;20519;-62
2021/11/20 09:41:05;;;;;;;10.90;7.10;;;14.30;99.90;;;;;;5072301;28;20235;-62
2021/11/20 09:43:34;;;;;;;9.10;8.20;;;14.20;99.90;;;;;;5072726;28;20458;-65
2021/11/20 09:46:09;;;;;;;9.90;7.43;;;14.20;99.90;;;;;;5072492;28;20466;-62
2021/11/20 09:48:40;;;;;;;9.98;6.80;;;14.20;99.90;;;;;;5072857;28;21017;-62
2021/11/20 09:51:14;;;;;;;7.30;6.60;;;14.20;99.90;;;;;;5072196;28;20231;-64
2021/11/20 09:53:42;;;;;;;6.72;6.10;;;14.20;99.90;;;;;;5072629;28;20470;-62
2021/11/20 09:56:13;;;;;;;12.90;6.27;;;14.20;99.90;;;;;;5072536;28;21032;-63
2021/11/20 09:58:49;;;;;;;10.03;5.80;;;14.20;99.90;;;;;;5072515;28;20478;-63
2021/11/20 10:01:31;;;;;;;9.23;6.80;;;14.20;99.90;;;;;;5072178;28;20458;-63
2021/11/20 10:04:13;;;;;;;12.25;6.38;;;14.20;99.90;;;;;;5071426;28;20466;-63
2021/11/20 10:06:42;;;;;;;8.33;5.10;;;14.20;99.90;;;;;;5072453;28;20261;-63
2021/11/20 10:09:24;;;;;;;8.52;6.45;;;14.20;99.90;;;;;;5071887;28;20474;-63
2021/11/20 10:11:56;;;;;;;9.13;4.83;;;14.30;99.90;;;;;;5072793;28;20612;-63
2021/11/20 10:14:31;;;;;;;8.07;6.23;;;14.30;99.90;;;;;;5072222;28;21070;-63
2021/11/20 10:17:04;;;;;;;9.70;7.13;;;14.30;99.90;;;;;;5072496;28;20531;-63
2021/11/20 10:19:42;;;;;;;6.73;5.17;;;14.30;99.90;;;;;;5072189;28;20505;-64
2021/11/20 10:22:16;;;;;;;11.33;6.70;;;14.40;99.90;;;;;;5071937;28;20470;-64
2021/11/20 10:24:52;;;;;;;12.93;6.82;;;14.40;99.90;;;;;;5072449;28;20474;-64
2021/11/20 10:27:38;;;;;;;13.00;7.80;;;14.40;99.90;;;;;;5071790;28;20310;-63
2021/11/20 10:30:18;;;;;;;8.13;6.10;;;14.50;99.90;;;;;;5072257;28;20482;-64
2021/11/20 10:32:52;;;;;;;11.43;7.20;;;14.50;99.90;;;;;;5072641;28;20478;-64
2021/11/20 10:35:23;;;;;;;8.67;6.80;;;14.50;99.90;;;;;;5071816;28;21270;-64
2021/11/20 10:37:54;;;;;;;20.83;14.00;;;14.50;99.90;;;;;;5072349;28;20466;-64
2021/11/20 10:40:28;;;;;;;9.43;6.70;;;14.50;99.90;;;;;;5071869;28;20523;-63
2021/11/20 10:42:59;;;;;;;9.43;5.80;;;14.50;99.90;;;;;;5072029;28;20933;-64
2021/11/20 10:45:39;;;;;;;8.60;6.40;;;14.50;99.90;;;;;;5072033;28;20938;-63
2021/11/20 10:48:14;;;;;;;8.23;6.10;;;14.60;99.90;;;;;;5071695;28;20860;-64
2021/11/20 10:50:43;;;;;;;8.48;5.80;;;14.50;99.90;;;;;;5071903;28;20492;-64
2021/11/20 10:53:57;;;;;;;18.63;7.23;;;14.50;99.90;;;;;;5071528;28;20686;-64
2021/11/20 10:56:33;;;;;;;7.70;6.30;;;14.60;99.90;;;;;;5071834;28;20462;-63
2021/11/20 10:59:11;;;;;;;6.47;5.00;;;14.60;99.90;;;;;;5071909;28;20478;-64
2021/11/20 11:02:02;;;;;;;11.53;6.90;;;14.60;99.90;;;;;;5072344;28;20493;-64
2021/11/20 11:04:46;;;;;;;9.90;6.50;;;14.60;99.90;;;;;;5071754;28;20835;-64
2021/11/20 11:07:20;;;;;;;6.33;5.73;;;14.60;99.90;;;;;;5071803;28;20475;-64
2021/11/20 11:09:48;;;;;;;7.13;6.50;;;14.60;99.90;;;;;;5071374;28;20839;-64
2021/11/20 11:12:31;;;;;;;7.93;6.47;;;14.60;99.90;;;;;;5071900;28;20466;-64
2021/11/20 11:15:29;;;;;;;11.40;7.27;;;14.60;99.90;;;;;;5072679;28;20543;-64
2021/11/20 11:18:35;;;;;;;9.90;7.77;;;14.70;99.90;;;;;;5075186;28;20540;-64
2021/11/20 11:21:44;;;;;;;11.83;7.20;;;14.70;99.90;;;;;;5075123;28;20928;-63
2021/11/20 11:24:19;;;;;;;14.07;7.80;;;14.70;99.90;;;;;;5075250;28;20653;-64
2021/11/20 11:26:53;;;;;;;13.23;8.73;;;14.60;99.90;;;;;;5075486;28;20224;-64
2021/11/20 11:29:30;;;;;;;12.40;6.97;;;14.60;99.90;;;;;;5075021;28;20806;-64
2021/11/20 11:31:58;;;;;;;16.30;11.50;;;14.60;99.90;;;;;;5074786;28;20488;-64
2021/11/20 11:34:28;;;;;;;9.13;8.20;;;14.60;99.90;;;;;;5075294;28;20542;-64
2021/11/20 11:37:03;;;;;;;13.23;7.00;;;14.60;99.90;;;;;;5075249;28;20474;-64
2021/11/20 11:39:38;;;;;;;10.63;7.20;;;14.60;99.90;;;;;;5074675;28;20488;-63
2021/11/20 11:42:24;;;;;;;8.87;7.97;;;14.60;99.90;;;;;;5075174;28;21104;-64
2021/11/20 11:44:59;;;;;;;12.10;7.47;;;14.60;99.90;;;;;;5075081;28;20450;-64
2021/11/20 11:47:29;;;;;;;9.13;7.60;;;14.60;99.90;;;;;;5074977;28;20469;-64
2021/11/20 11:50:18;;;;;;;10.30;7.53;;;14.60;99.90;;;;;;5074350;28;20470;-64
2021/11/20 11:52:53;;;;;;;8.63;7.63;;;14.60;99.90;;;;;;5074952;28;20462;-64
2021/11/20 11:55:43;;;;;;;10.53;7.87;;;14.60;99.90;;;;;;5074491;28;20450;-64
2021/11/20 11:58:21;;;;;;;10.77;9.77;;;14.70;99.90;;;;;;5074183;28;20474;-64
2021/11/20 12:01:00;;;;;;;11.97;10.87;;;14.60;99.90;;;;;;5074740;28;20949;-64
2021/11/20 12:03:32;;;;;;;13.40;10.27;;;14.60;99.90;;;;;;5074481;28;20979;-64
2021/11/20 12:06:14;;;;;;;13.77;12.37;;;14.60;99.90;;;;;;5074589;28;20466;-63
2021/11/20 12:08:43;;;;;;;10.77;9.67;;;14.60;99.90;;;;;;5075160;28;20835;-63
2021/11/20 12:11:14;;;;;;;16.10;8.77;;;14.60;99.90;;;;;;5074037;28;21063;-63
2021/11/20 12:13:45;;;;;;;9.50;7.53;;;14.60;99.90;;;;;;5074373;28;20470;-63
2021/11/20 12:16:34;;;;;;;10.97;9.87;;;14.60;99.90;;;;;;5074166;28;20455;-63
2021/11/20 12:19:05;;;;;;;9.13;8.27;;;14.60;99.90;;;;;;5073945;28;20488;-63
2021/11/20 12:21:39;;;;;;;11.50;8.93;;;14.60;99.90;;;;;;5074271;28;20458;-64
2021/11/20 12:24:18;;;;;;;13.70;11.97;;;14.60;99.90;;;;;;5073919;28;20474;-64
2021/11/20 12:26:56;;;;;;;11.73;10.33;;;14.60;99.90;;;;;;5073623;28;20474;-64
2021/11/20 12:29:43;;;;;;;10.17;9.27;;;14.60;99.90;;;;;;5074445;28;20462;-64
2021/11/20 12:32:34;;;;;;;13.87;9.80;;;14.60;99.90;;;;;;5073832;28;20454;-64
2021/11/20 12:35:11;;;;;;;12.30;9.20;;;14.60;99.90;;;;;;5073934;28;20466;-64
2021/11/20 12:37:50;;;;;;;14.30;8.57;;;14.60;99.90;;;;;;5073690;28;21258;-64
2021/11/20 12:40:36;;;;;;;11.10;9.30;;;14.70;99.90;;;;;;5073592;28;20478;-64
2021/11/20 12:43:18;;;;;;;9.50;8.47;;;14.70;99.90;;;;;;5074024;28;20846;-64
2021/11/20 12:46:08;;;;;;;14.93;10.37;;;14.80;99.90;;;;;;5073661;28;21201;-64
2021/11/20 12:48:55;;;;;;;8.60;7.73;;;14.80;99.90;;;;;;5073525;28;20474;-64
2021/11/20 12:51:48;;;;;;;10.47;9.47;;;14.70;99.90;;;;;;5073117;28;20470;-65
2021/11/20 12:54:26;;;;;;;14.03;11.20;;;14.70;99.90;;;;;;5073626;28;20465;-64
2021/11/20 12:57:07;;;;;;;13.87;9.93;;;14.70;99.90;;;;;;5073371;28;20473;-64
2021/11/20 12:59:38;;;;;;;11.10;10.03;;;14.70;99.90;;;;;;5073133;28;20466;-64
2021/11/20 13:02:08;;;;;;;13.50;11.90;;;14.70;99.90;;;;;;5073559;28;20853;-64
2021/11/20 13:04:47;;;;;;;11.13;9.50;;;14.70;99.90;;;;;;5072893;28;20489;-64
2021/11/20 13:07:16;;;;;;;10.57;9.03;;;14.70;99.90;;;;;;5073101;28;20968;-64
2021/11/20 13:09:54;;;;;;;11.33;9.47;;;14.70;99.90;;;;;;5072829;28;20855;-64
2021/11/20 13:12:27;;;;;;;14.60;10.77;;;14.80;99.90;;;;;;5073465;28;20527;-64